Hwy 5 at Elkhorn Atmospheric Data: 09/30/2022 Summary  Detailed Graphs  Station List

  Temperature     Wind Precipitation Visibility
Timestamp Air Wet
Bulb
Dew-
point
24-hr
Max
24-hr
Min
Relative
Humidity
Atmospheric
Pressure
Avg
Speed
Avg
Dir
Spot
Speed
Spot
Dir
Max
Speed
Max
Dir
  Rate Situation Start End 1 hr 3 hr 6 hr 12 hr 24 hr   Situation
Date Time °F °F °F °F °F % in Hg mph ° mph ° mph ° Y/N in/hr text Date Time Date Time in in in in in mi text
09/30/2022 12:00 AM 69.80 59.36 52.34 87.98 56.66 54.0 Not Reported 2.24 NW 1.34 NW 2.24 W No 0.000 No Precipitation     0.000 0.000 0.000 0.000 0.000 1.97 Clear
09/30/2022 12:15 AM 66.56 58.46 53.06 87.98 56.66 62.0 Not Reported 2.01 NE 1.79 N 2.46 NW No 0.000 No Precipitation     0.000 0.000 0.000 0.000 0.000 1.93 Clear
09/30/2022 12:30 AM 66.20 59.72 54.86 87.98 56.66 67.0 Not Reported 2.01 NE 1.79 N 2.68 NE No 0.000 No Precipitation     0.000 0.000 0.000 0.000 0.000 1.94 Clear
09/30/2022 12:45 AM 65.66 58.64 53.96 87.98 56.66 66.0 Not Reported 0.22 S 1.34 SE 2.24 N No 0.000 No Precipitation     0.000 0.000 0.000 0.000 0.000 1.91 Clear
09/30/2022 01:00 AM 65.12 58.10 53.42 87.98 56.66 66.0 Not Reported 0.00 S 1.57 S 1.57 SE No 0.000 No Precipitation     0.000 0.000 0.000 0.000 0.000 1.89 Clear
09/30/2022 01:15 AM 64.04 57.56 53.24 87.98 56.66 68.0 Not Reported 0.67 NE 1.57 N 1.57 S No 0.000 No Precipitation     0.000 0.000 0.000 0.000 0.000 1.90 Clear
09/30/2022 01:30 AM 64.04 57.56 53.60 87.98 56.66 68.0 Not Reported 0.22 N 0.00 N 1.34 NE No 0.000 No Precipitation     0.000 0.000 0.000 0.000 0.000 1.93 Clear
09/30/2022 01:45 AM 63.68 57.92 53.96 87.98 56.66 71.0 Not Reported 0.00 N 0.22 SW 0.89 N No 0.000 No Precipitation     0.000 0.000 0.000 0.000 0.000 1.85 Clear
09/30/2022 02:00 AM 63.14 57.20 53.06 87.98 56.66 70.0 Not Reported 1.12 E 0.45 E 1.79 SW No 0.000 No Precipitation     0.000 0.000 0.000 0.000 0.000 1.97 Clear
09/30/2022 02:15 AM 62.60 57.20 53.42 87.98 56.66 72.0 Not Reported 2.91 SW 3.13 SW 3.13 W No 0.000 No Precipitation     0.000 0.000 0.000 0.000 0.000 1.93 Clear
09/30/2022 02:30 AM 61.70 56.84 53.60 87.98 56.66 75.0 Not Reported 2.68 W 0.67 NW 3.80 W No 0.000 No Precipitation     0.000 0.000 0.000 0.000 0.000 1.88 Clear
09/30/2022 02:45 AM 63.68 56.48 51.26 87.98 56.66 65.0 Not Reported 2.01 W 2.46 W 4.03 W No 0.000 No Precipitation     0.000 0.000 0.000 0.000 0.000 1.95 Clear
09/30/2022 03:00 AM 62.24 55.76 51.08 87.98 56.66 67.0 Not Reported 1.57 W 0.00 NW 2.01 W No 0.000 No Precipitation     0.000 0.000 0.000 0.000 0.000 2.00 Clear
09/30/2022 03:15 AM 62.78 54.50 48.56 87.98 56.66 60.0 Not Reported 4.92 NW 6.04 NW 4.03 W No 0.000 No Precipitation     0.000 0.000 0.000 0.000 0.000 2.16 Clear
09/30/2022 03:30 AM 62.60 54.32 48.02 87.98 56.66 59.0 Not Reported 0.45 N 0.00 SW 6.26 N No 0.000 No Precipitation     0.000 0.000 0.000 0.000 0.000 2.20 Clear
09/30/2022 03:45 AM 59.54 54.68 51.62 87.98 56.66 75.0 Not Reported 2.01 N 2.68 NW 2.01 NW No 0.000 No Precipitation     0.000 0.000 0.000 0.000 0.000 2.03 Clear
09/30/2022 04:00 AM 60.62 53.78 48.38 87.98 56.66 64.0 Not Reported 1.79 NE 2.24 NE 3.80 NW No 0.000 No Precipitation     0.000 0.000 0.000 0.000 0.000 2.02 Clear
09/30/2022 04:15 AM 60.44 53.06 47.66 87.98 56.66 62.0 Not Reported 3.13 N 3.13 NE 3.13 NE No 0.000 No Precipitation     0.000 0.000 0.000 0.000 0.000 1.99 Clear
09/30/2022 04:30 AM 61.16 53.60 47.12 87.98 56.66 60.0 Not Reported 3.58 NE 3.80 N 5.14 NE No 0.000 No Precipitation     0.000 0.000 0.000 0.000 0.000 2.09 Clear
09/30/2022 04:45 AM 61.88 53.60 46.94 87.98 56.66 58.0 Not Reported 4.92 N 5.82 N 7.38 N No 0.000 No Precipitation     0.000 0.000 0.000 0.000 0.000 2.16 Clear
09/30/2022 05:00 AM 60.98 53.42 46.94 87.98 56.66 60.0 Not Reported 5.82 N 5.82 N 6.93 N No 0.000 No Precipitation     0.000 0.000 0.000 0.000 0.000 2.08 Clear
09/30/2022 05:15 AM 60.26 52.70 46.76 87.98 56.66 61.0 Not Reported 6.49 N 6.26 N 6.93 N No 0.000 No Precipitation     0.000 0.000 0.000 0.000 0.000 2.13 Clear
09/30/2022 05:30 AM 59.90 53.06 47.66 87.98 56.66 64.0 Not Reported 5.82 N 6.49 N 7.38 NE No 0.000 No Precipitation     0.000 0.000 0.000 0.000 0.000 2.06 Clear
09/30/2022 05:45 AM 59.00 52.52 47.12 87.98 56.66 65.0 Not Reported 7.16 N 6.93 N 6.49 N No 0.000 No Precipitation     0.000 0.000 0.000 0.000 0.000 2.11 Clear
09/30/2022 06:00 AM 57.92 51.98 46.94 87.98 56.66 67.0 Not Reported 4.25 N 4.25 N 7.61 N No 0.000 No Precipitation     0.000 0.000 0.000 0.000 0.000 2.05 Clear
09/30/2022 06:15 AM 56.12 51.26 47.12 87.98 56.66 72.0 Not Reported 4.25 N 4.03 NW 5.37 N No 0.000 No Precipitation     0.000 0.000 0.000 0.000 0.000 1.99 Clear
09/30/2022 06:30 AM 56.30 51.44 47.12 87.98 56.66 71.0 Not Reported 2.46 NE 3.13 NE 4.03 NE No 0.000 No Precipitation     0.000 0.000 0.000 0.000 0.000 2.04 Clear
09/30/2022 06:45 AM 58.82 52.34 46.94 87.98 56.66 65.0 Not Reported 2.91 N 1.34 N 3.13 NE No 0.000 No Precipitation     0.000 0.000 0.000 0.000 0.000 1.97 Clear
09/30/2022 07:00 AM 58.82 52.70 47.84 87.98 56.66 67.0 Not Reported 1.57 N 2.68 N 3.36 N No 0.000 No Precipitation     0.000 0.000 0.000 0.000 0.000 2.03 Clear
09/30/2022 07:15 AM 58.46 52.52 47.84 87.98 56.66 68.0 Not Reported 1.34 N 2.01 N 2.91 N No 0.000 No Precipitation     0.000 0.000 0.000 0.000 0.000 2.10 Clear
09/30/2022 07:30 AM 59.18 52.88 47.84 87.98 56.66 66.0 Not Reported 2.68 NE 2.01 NE 3.58 NE No 0.000 No Precipitation     0.000 0.000 0.000 0.000 0.000 2.11 Clear
09/30/2022 07:45 AM 60.62 53.24 47.48 87.98 56.66 62.0 Not Reported 3.13 N 3.13 N 3.13 N No 0.000 No Precipitation     0.000 0.000 0.000 0.000 0.000 2.05 Clear
09/30/2022 08:00 AM 61.70 53.78 47.66 87.98 56.66 60.0 Not Reported 2.01 N 2.01 N 3.13 N No 0.000 No Precipitation     0.000 0.000 0.000 0.000 0.000 2.05 Clear
09/30/2022 08:15 AM 62.78 54.50 47.30 87.98 56.66 57.0 Not Reported 2.46 N 1.79 N 3.58 N No 0.000 No Precipitation     0.000 0.000 0.000 0.000 0.000 2.11 Clear
09/30/2022 08:30 AM 63.32 55.22 49.10 87.98 56.66 60.0 Not Reported 3.58 N 2.46 N 4.92 N No 0.000 No Precipitation     0.000 0.000 0.000 0.000 0.000 2.30 Clear
09/30/2022 08:45 AM 64.94 56.48 51.08 87.98 56.66 61.0 Not Reported 2.91 N 3.13 N 4.70 N No 0.000 No Precipitation     0.000 0.000 0.000 0.000 0.000 2.18 Clear
09/30/2022 09:00 AM 66.56 56.66 49.28 87.98 56.66 54.0 Not Reported 3.13 N 3.58 NW 3.80 NW No 0.000 No Precipitation     0.000 0.000 0.000 0.000 0.000 2.14 Clear
09/30/2022 09:15 AM 68.18 56.84 48.20 87.98 56.66 49.0 Not Reported 3.58 N 1.34 NW 4.03 NW No 0.000 No Precipitation     0.000 0.000 0.000 0.000 0.000 2.09 Clear
09/30/2022 09:30 AM 69.44 58.28 49.46 87.98 56.66 49.0 Not Reported 2.24 N 1.79 NE 6.49 NW No 0.000 No Precipitation     0.000 0.000 0.000 0.000 0.000 1.97 Clear
09/30/2022 09:45 AM 70.88 58.28 49.10 87.98 56.66 46.0 Not Reported 3.58 N 3.13 NE 4.25 N No 0.000 No Precipitation     0.000 0.000 0.000 0.000 0.000 2.18 Clear
09/30/2022 10:00 AM 72.50 59.18 49.28 87.98 56.66 44.0 Not Reported 2.46 N 3.36 NE 5.14 N No 0.000 No Precipitation     0.000 0.000 0.000 0.000 0.000 2.20 Clear
09/30/2022 10:15 AM 73.22 58.46 47.48 87.98 56.66 40.0 Not Reported 5.14 N 5.37 N 4.03 N No 0.000 No Precipitation     0.000 0.000 0.000 0.000 0.000 2.29 Clear
09/30/2022 10:30 AM 73.40 58.46 47.30 87.98 56.66 39.0 Not Reported 5.14 N 4.47 NW 8.95 N No 0.000 No Precipitation     0.000 0.000 0.000 0.000 0.000 2.32 Clear
09/30/2022 10:45 AM 75.38 59.72 48.74 87.98 56.66 39.0 Not Reported 4.70 N 5.37 N 7.16 N No 0.000 No Precipitation     0.000 0.000 0.000 0.000 0.000 2.07 Clear
09/30/2022 11:00 AM 77.18 60.26 48.20 87.98 56.66 36.0 Not Reported 4.47 N 3.58 N 7.61 N No 0.000 No Precipitation     0.000 0.000 0.000 0.000 0.000 2.24 Clear
09/30/2022 11:15 AM 77.18 60.26 48.20 87.98 56.66 36.0 Not Reported 4.47 NW 8.05 NW 8.95 N No 0.000 No Precipitation     0.000 0.000 0.000 0.000 0.000 2.11 Clear
09/30/2022 11:30 AM 78.08 61.16 49.64 87.98 56.66 37.0 Not Reported 6.26 NW 4.92 N 8.50 NW No 0.000 No Precipitation     0.000 0.000 0.000 0.000 0.000 2.09 Clear
09/30/2022 11:45 AM 80.06 62.78 51.44 87.98 56.66 37.0 Not Reported 3.13 N 4.03 E 7.38 SW No 0.000 No Precipitation     0.000 0.000 0.000 0.000 0.000 2.12 Clear
09/30/2022 12:00 PM 80.78 62.60 50.54 87.98 56.66 35.0 Not Reported 3.58 NW 7.61 N 7.83 NW No 0.000 No Precipitation     0.000 0.000 0.000 0.000 0.000 2.11 Clear
09/30/2022 12:15 PM 80.96 62.42 49.82 87.98 56.66 34.0 Not Reported 5.14 N 5.59 N 9.17 N No 0.000 No Precipitation     0.000 0.000 0.000 0.000 0.000 2.17 Clear
09/30/2022 12:30 PM 81.50 62.42 49.64 87.98 56.66 33.0 Not Reported 4.92 NW 2.24 NW 8.72 NW No 0.000 No Precipitation     0.000 0.000 0.000 0.000 0.000 2.15 Clear
09/30/2022 12:45 PM 82.76 62.96 49.82 87.98 56.66 32.0 Not Reported 5.82 NW 3.13 N 7.83 N No 0.000 No Precipitation     0.000 0.000 0.000 0.000 0.000 2.01 Clear
09/30/2022 01:00 PM 84.02 63.50 50.00 87.98 56.66 31.0 Not Reported 6.49 NW 6.71 N 7.16 N No 0.000 No Precipitation     0.000 0.000 0.000 0.000 0.000 2.25 Clear
09/30/2022 01:15 PM 84.92 63.50 49.10 87.98 56.66 29.0 Not Reported 3.13 NW 8.05 N 10.07 N No 0.000 No Precipitation     0.000 0.000 0.000 0.000 0.000 2.14 Clear
09/30/2022 01:30 PM 84.74 62.96 48.02 87.98 56.66 28.0 Not Reported 8.72 N 3.13 NE 8.72 N No 0.000 No Precipitation     0.000 0.000 0.000 0.000 0.000 2.16 Clear
09/30/2022 01:45 PM 85.10 63.14 48.20 87.98 56.66 28.0 Not Reported 7.83 NW 3.80 N 9.40 N No 0.000 No Precipitation     0.000 0.000 0.000 0.000 0.000 2.11 Clear
09/30/2022 02:00 PM 86.18 62.78 46.22 87.98 56.66 25.0 Not Reported 6.26 NW 7.38 NW 10.29 NW No 0.000 No Precipitation     0.000 0.000 0.000 0.000 0.000 2.14 Clear
09/30/2022 02:15 PM 86.72 63.50 47.66 87.98 56.66 26.0 Not Reported 4.92 N 6.04 N 11.41 NW No 0.000 No Precipitation     0.000 0.000 0.000 0.000 0.000 2.26 Clear
09/30/2022 02:30 PM 87.08 63.32 46.94 87.98 56.66 25.0 Not Reported 6.04 NW 5.59 NW 8.72 N No 0.000 No Precipitation     0.000 0.000 0.000 0.000 0.000 2.12 Clear
09/30/2022 02:45 PM 87.62 63.68 47.48 87.98 56.66 25.0 Not Reported 9.84 N 4.47 N 8.50 N No 0.000 No Precipitation     0.000 0.000 0.000 0.000 0.000 2.21 Clear
09/30/2022 03:00 PM 87.80 63.50 46.40 87.98 56.66 24.0 Not Reported 6.26 NW 7.16 NW 9.84 N No 0.000 No Precipitation     0.000 0.000 0.000 0.000 0.000 2.15 Clear
09/30/2022 03:15 PM 89.60 64.22 46.94 87.98 56.66 23.0 Not Reported 4.92 N 6.49 NE 7.83 NW No 0.000 No Precipitation     0.000 0.000 0.000 0.000 0.000 2.28 Clear
09/30/2022 03:30 PM 88.88 63.68 46.22 87.98 56.66 23.0 Not Reported 5.37 N 3.80 N 10.07 NW No 0.000 No Precipitation     0.000 0.000 0.000 0.000 0.000 2.12 Clear
09/30/2022 03:45 PM 88.70 63.50 46.04 87.98 56.66 23.0 Not Reported 7.38 NW 3.58 NW 8.50 N No 0.000 No Precipitation     0.000 0.000 0.000 0.000 0.000 2.25 Clear
09/30/2022 04:00 PM 89.42 63.68 45.50 87.98 56.66 22.0 Not Reported 6.49 NW 8.50 N 9.62 NW No 0.000 No Precipitation     0.000 0.000 0.000 0.000 0.000 2.31 Clear
09/30/2022 04:15 PM 90.14 63.68 44.96 87.98 56.66 21.0 Not Reported 6.26 NW 5.37 NW 10.29 NW No 0.000 No Precipitation     0.000 0.000 0.000 0.000 0.000 2.08 Clear
09/30/2022 04:30 PM 89.96 63.50 44.78 87.98 56.66 21.0 Not Reported 5.59 NW 3.58 N 9.40 N No 0.000 No Precipitation     0.000 0.000 0.000 0.000 0.000 2.19 Clear
09/30/2022 04:45 PM 89.78 63.50 44.60 87.98 56.66 21.0 Not Reported 6.93 N 10.07 N 8.50 NW No 0.000 No Precipitation     0.000 0.000 0.000 0.000 0.000 2.12 Clear
09/30/2022 05:00 PM 89.96 64.04 46.04 87.98 56.66 22.0 Not Reported 8.50 N 10.29 N 8.28 N No 0.000 No Precipitation     0.000 0.000 0.000 0.000 0.000 2.10 Clear
09/30/2022 05:15 PM 89.96 64.04 46.04 87.98 56.66 22.0 Not Reported 6.49 N 4.25 NW 10.74 N No 0.000 No Precipitation     0.000 0.000 0.000 0.000 0.000 2.28 Clear
09/30/2022 05:30 PM 90.14 64.94 48.38 87.98 56.66 24.0 Not Reported 4.92 N 6.04 N 9.17 N No 0.000 No Precipitation     0.000 0.000 0.000 0.000 0.000 2.07 Clear
09/30/2022 05:45 PM 89.42 63.68 45.50 87.98 56.66 22.0 Not Reported 5.37 N 7.83 N 8.95 NE No 0.000 No Precipitation     0.000 0.000 0.000 0.000 0.000 1.96 Clear
09/30/2022 06:00 PM 88.70 64.94 49.28 87.98 56.66 26.0 Not Reported 3.13 N 3.13 N 8.50 N No 0.000 No Precipitation     0.000 0.000 0.000 0.000 0.000 2.10 Clear
09/30/2022 06:15 PM 88.34 64.58 49.10 87.98 56.66 26.0 Not Reported 2.46 NE 4.03 N 5.14 NE No 0.000 No Precipitation     0.000 0.000 0.000 0.000 0.000 2.10 Clear
09/30/2022 06:30 PM 86.36 64.40 50.36 91.40 55.94 29.0 Not Reported 3.13 NE 2.91 N 4.70 NE No 0.000 No Precipitation     0.000 0.000 0.000 0.000 0.000 2.09 Clear
09/30/2022 06:45 PM 84.92 63.86 50.00 91.40 55.94 30.0 Not Reported 3.80 NE 3.58 NE 4.47 NE No 0.000 No Precipitation     0.000 0.000 0.000 0.000 0.000 2.00 Clear
09/30/2022 07:00 PM 83.12 63.68 51.08 91.40 55.94 33.0 Not Reported 3.80 NE 3.13 NE 5.37 NE No 0.000 No Precipitation     0.000 0.000 0.000 0.000 0.000 1.71 Clear
09/30/2022 07:15 PM 82.04 62.78 50.00 91.40 55.94 33.0 Not Reported 4.03 NE 3.36 NE 4.47 NE No 0.000 No Precipitation     0.000 0.000 0.000 0.000 0.000 1.99 Clear
09/30/2022 07:30 PM 81.68 62.60 49.82 91.40 55.94 33.0 Not Reported 4.03 NE 4.47 NE 4.92 NE No 0.000 No Precipitation     0.000 0.000 0.000 0.000 0.000 1.89 Clear
09/30/2022 07:45 PM 81.68 62.60 49.82 91.40 55.94 33.0 Not Reported 4.92 E 4.92 NE 5.82 E No 0.000 No Precipitation     0.000 0.000 0.000 0.000 0.000 1.99 Clear
09/30/2022 08:00 PM 80.78 62.24 49.82 91.40 55.94 34.0 Not Reported 1.34 SE 1.12 E 5.59 NE No 0.000 No Precipitation     0.000 0.000 0.000 0.000 0.000 1.96 Clear
09/30/2022 08:15 PM 79.16 62.06 50.54 91.40 55.94 37.0 Not Reported 2.01 SE 2.91 SE 2.91 E No 0.000 No Precipitation     0.000 0.000 0.000 0.000 0.000 1.97 Clear
09/30/2022 08:30 PM 78.26 62.06 51.26 91.40 55.94 39.0 Not Reported 2.24 E 1.57 E 4.25 SE No 0.000 No Precipitation     0.000 0.000 0.000 0.000 0.000 2.03 Clear
09/30/2022 08:45 PM 77.72 61.52 50.72 91.40 55.94 39.0 Not Reported 1.12 SE 0.89 S 2.91 E No 0.000 No Precipitation     0.000 0.000 0.000 0.000 0.000 1.69 Clear
09/30/2022 09:00 PM 76.28 60.44 49.46 91.40 55.94 39.0 Not Reported 0.89 SW 1.34 S 2.01 S No 0.000 No Precipitation     0.000 0.000 0.000 0.000 0.000 2.05 Clear
09/30/2022 09:15 PM 71.24 59.00 50.54 91.40 55.94 48.0 Not Reported 4.70 SW 3.80 SW 2.46 S No 0.000 No Precipitation     0.000 0.000 0.000 0.000 0.000 1.89 Clear
09/30/2022 09:45 PM 73.76 59.90 50.36 91.40 55.94 44.0 Not Reported 4.70 SW 4.70 W 5.37 SW No 0.000 No Precipitation     0.000 0.000 0.000 0.000 0.000 1.81 Clear
09/30/2022 10:00 PM 71.96 59.90 51.62 91.40 55.94 49.0 Not Reported 6.93 W 7.16 W 7.16 W No 0.000 No Precipitation     0.000 0.000 0.000 0.000 0.000 1.95 Clear
09/30/2022 10:15 PM 70.16 59.36 52.16 91.40 55.94 53.0 Not Reported 1.79 NW 2.91 NW 7.38 W No 0.000 No Precipitation     0.000 0.000 0.000 0.000 0.000 1.98 Clear
09/30/2022 10:30 PM 70.34 59.00 51.26 91.40 55.94 51.0 Not Reported 3.36 NW 3.58 NW 3.80 NW No 0.000 No Precipitation     0.000 0.000 0.000 0.000 0.000 1.97 Clear
09/30/2022 10:45 PM 69.26 58.64 51.26 91.40 55.94 53.0 Not Reported 4.03 N 4.03 N 4.03 N No 0.000 No Precipitation     0.000 0.000 0.000 0.000 0.000 1.95 Clear
09/30/2022 11:00 PM 69.26 59.00 51.80 91.40 55.94 54.0 Not Reported 4.25 N 4.03 N 4.70 N No 0.000 No Precipitation     0.000 0.000 0.000 0.000 0.000 1.45 Clear
09/30/2022 11:15 PM 69.80 58.82 51.26 91.40 55.94 52.0 Not Reported 3.80 N 3.13 N 4.25 N No 0.000 No Precipitation     0.000 0.000 0.000 0.000 0.000 1.82 Clear
09/30/2022 11:30 PM 68.36 58.64 51.98 91.40 55.94 56.0 Not Reported 0.67 E 0.22 E 2.46 NE No 0.000 No Precipitation     0.000 0.000 0.000 0.000 0.000 1.90 Clear
09/30/2022 11:45 PM 63.68 55.94 50.36 91.40 55.94 62.0 Not Reported 6.04 SE 4.03 SE 6.04 SE No 0.000 No Precipitation     0.000 0.000 0.000 0.000 0.000 1.94 Clear